sensor_id;sensor_type;location;lat;lon;timestamp;P1;durP1;ratioP1;P2;durP2;ratioP2
73563;SDS011;61834;50.196;6.454;2022-09-03T00:00:14;1.13;;;0.98;;
73563;SDS011;61834;50.196;6.454;2022-09-03T00:05:20;1.05;;;0.95;;
73563;SDS011;61834;50.196;6.454;2022-09-03T00:10:58;1.33;;;0.88;;
73563;SDS011;61834;50.196;6.454;2022-09-03T00:13:32;1.10;;;0.80;;
73563;SDS011;61834;50.196;6.454;2022-09-03T00:18:34;0.60;;;0.60;;
73563;SDS011;61834;50.196;6.454;2022-09-03T00:21:07;1.00;;;0.90;;
73563;SDS011;61834;50.196;6.454;2022-09-03T00:23:40;1.13;;;1.02;;
73563;SDS011;61834;50.196;6.454;2022-09-03T00:28:44;2.30;;;0.77;;
73563;SDS011;61834;50.196;6.454;2022-09-03T00:31:18;1.15;;;1.05;;
73563;SDS011;61834;50.196;6.454;2022-09-03T00:34:03;1.70;;;1.10;;
73563;SDS011;61834;50.196;6.454;2022-09-03T00:36:44;0.80;;;0.80;;
73563;SDS011;61834;50.196;6.454;2022-09-03T00:39:17;0.98;;;0.88;;
73563;SDS011;61834;50.196;6.454;2022-09-03T00:44:48;1.15;;;1.00;;
73563;SDS011;61834;50.196;6.454;2022-09-03T00:47:28;0.88;;;0.70;;
73563;SDS011;61834;50.196;6.454;2022-09-03T00:55:46;1.15;;;1.02;;
73563;SDS011;61834;50.196;6.454;2022-09-03T01:03:51;0.93;;;0.80;;
73563;SDS011;61834;50.196;6.454;2022-09-03T01:18:04;0.98;;;0.90;;
73563;SDS011;61834;50.196;6.454;2022-09-03T01:20:26;1.35;;;0.90;;
73563;SDS011;61834;50.196;6.454;2022-09-03T01:26:15;2.25;;;1.13;;
73563;SDS011;61834;50.196;6.454;2022-09-03T01:31:28;1.27;;;0.82;;
73563;SDS011;61834;50.196;6.454;2022-09-03T01:33:58;1.70;;;0.80;;
73563;SDS011;61834;50.196;6.454;2022-09-03T01:36:35;1.05;;;0.75;;
73563;SDS011;61834;50.196;6.454;2022-09-03T01:39:17;1.25;;;0.88;;
73563;SDS011;61834;50.196;6.454;2022-09-03T01:42:05;1.08;;;0.80;;
73563;SDS011;61834;50.196;6.454;2022-09-03T01:53:00;1.02;;;0.70;;
73563;SDS011;61834;50.196;6.454;2022-09-03T01:55:32;1.35;;;0.80;;
73563;SDS011;61834;50.196;6.454;2022-09-03T01:58:10;1.88;;;1.00;;
73563;SDS011;61834;50.196;6.454;2022-09-03T02:00:43;0.85;;;0.77;;
73563;SDS011;61834;50.196;6.454;2022-09-03T02:03:13;0.93;;;0.80;;
73563;SDS011;61834;50.196;6.454;2022-09-03T02:05:40;0.90;;;0.90;;
73563;SDS011;61834;50.196;6.454;2022-09-03T02:08:08;1.40;;;0.90;;
73563;SDS011;61834;50.196;6.454;2022-09-03T02:13:15;0.93;;;0.90;;
73563;SDS011;61834;50.196;6.454;2022-09-03T02:15:42;0.93;;;0.90;;
73563;SDS011;61834;50.196;6.454;2022-09-03T02:18:14;1.80;;;0.98;;
73563;SDS011;61834;50.196;6.454;2022-09-03T02:20:47;1.10;;;0.80;;
73563;SDS011;61834;50.196;6.454;2022-09-03T02:23:13;0.80;;;0.80;;
73563;SDS011;61834;50.196;6.454;2022-09-03T02:25:40;1.17;;;0.95;;
73563;SDS011;61834;50.196;6.454;2022-09-03T02:28:09;1.27;;;1.00;;
73563;SDS011;61834;50.196;6.454;2022-09-03T02:30:35;1.17;;;0.88;;
73563;SDS011;61834;50.196;6.454;2022-09-03T02:33:01;0.82;;;0.80;;
73563;SDS011;61834;50.196;6.454;2022-09-03T02:35:26;1.00;;;0.80;;
73563;SDS011;61834;50.196;6.454;2022-09-03T02:37:52;1.63;;;0.70;;
73563;SDS011;61834;50.196;6.454;2022-09-03T02:40:18;2.45;;;1.10;;
73563;SDS011;61834;50.196;6.454;2022-09-03T02:42:44;1.85;;;0.90;;
73563;SDS011;61834;50.196;6.454;2022-09-03T02:47:45;1.25;;;0.90;;
73563;SDS011;61834;50.196;6.454;2022-09-03T02:50:14;0.77;;;0.70;;
73563;SDS011;61834;50.196;6.454;2022-09-03T02:52:39;1.20;;;0.90;;
73563;SDS011;61834;50.196;6.454;2022-09-03T02:55:05;1.20;;;0.90;;
73563;SDS011;61834;50.196;6.454;2022-09-03T02:57:30;2.00;;;0.73;;
73563;SDS011;61834;50.196;6.454;2022-09-03T02:59:56;0.80;;;0.60;;
73563;SDS011;61834;50.196;6.454;2022-09-03T03:02:21;1.33;;;0.82;;
73563;SDS011;61834;50.196;6.454;2022-09-03T03:04:46;0.80;;;0.80;;
73563;SDS011;61834;50.196;6.454;2022-09-03T03:07:12;0.95;;;0.77;;
73563;SDS011;61834;50.196;6.454;2022-09-03T03:09:37;0.95;;;0.75;;
73563;SDS011;61834;50.196;6.454;2022-09-03T03:12:02;1.30;;;0.93;;
73563;SDS011;61834;50.196;6.454;2022-09-03T03:14:28;0.82;;;0.75;;
73563;SDS011;61834;50.196;6.454;2022-09-03T03:16:53;1.20;;;0.90;;
73563;SDS011;61834;50.196;6.454;2022-09-03T03:19:18;0.70;;;0.70;;
73563;SDS011;61834;50.196;6.454;2022-09-03T03:21:44;0.93;;;0.90;;
73563;SDS011;61834;50.196;6.454;2022-09-03T03:24:09;0.82;;;0.80;;
73563;SDS011;61834;50.196;6.454;2022-09-03T03:26:35;1.05;;;0.80;;
73563;SDS011;61834;50.196;6.454;2022-09-03T03:29:01;1.10;;;0.80;;
73563;SDS011;61834;50.196;6.454;2022-09-03T03:31:30;0.70;;;0.70;;
73563;SDS011;61834;50.196;6.454;2022-09-03T03:33:57;2.35;;;0.70;;
73563;SDS011;61834;50.196;6.454;2022-09-03T03:36:25;1.23;;;1.00;;
73563;SDS011;61834;50.196;6.454;2022-09-03T03:38:53;0.95;;;0.90;;
73563;SDS011;61834;50.196;6.454;2022-09-03T03:41:20;1.15;;;0.90;;
73563;SDS011;61834;50.196;6.454;2022-09-03T03:43:57;1.15;;;0.90;;
73563;SDS011;61834;50.196;6.454;2022-09-03T03:46:27;0.93;;;0.80;;
73563;SDS011;61834;50.196;6.454;2022-09-03T03:48:55;1.05;;;0.82;;
73563;SDS011;61834;50.196;6.454;2022-09-03T03:51:20;1.30;;;1.00;;
73563;SDS011;61834;50.196;6.454;2022-09-03T03:53:46;0.98;;;0.80;;
73563;SDS011;61834;50.196;6.454;2022-09-03T03:56:13;0.90;;;0.75;;
73563;SDS011;61834;50.196;6.454;2022-09-03T03:58:40;1.23;;;0.70;;
73563;SDS011;61834;50.196;6.454;2022-09-03T04:01:12;1.00;;;0.90;;
73563;SDS011;61834;50.196;6.454;2022-09-03T04:03:40;0.80;;;0.80;;
73563;SDS011;61834;50.196;6.454;2022-09-03T04:06:07;1.33;;;1.02;;
73563;SDS011;61834;50.196;6.454;2022-09-03T04:08:33;1.08;;;0.70;;
73563;SDS011;61834;50.196;6.454;2022-09-03T04:11:01;2.78;;;0.80;;
73563;SDS011;61834;50.196;6.454;2022-09-03T04:13:28;0.75;;;0.65;;
73563;SDS011;61834;50.196;6.454;2022-09-03T04:16:04;0.93;;;0.73;;
73563;SDS011;61834;50.196;6.454;2022-09-03T04:18:35;1.50;;;1.13;;
73563;SDS011;61834;50.196;6.454;2022-09-03T04:21:02;0.90;;;0.80;;
73563;SDS011;61834;50.196;6.454;2022-09-03T04:23:31;1.40;;;1.00;;
73563;SDS011;61834;50.196;6.454;2022-09-03T04:26:01;1.02;;;0.70;;
73563;SDS011;61834;50.196;6.454;2022-09-03T04:28:27;0.90;;;0.90;;
73563;SDS011;61834;50.196;6.454;2022-09-03T04:30:59;1.35;;;0.93;;
73563;SDS011;61834;50.196;6.454;2022-09-03T04:33:26;1.20;;;0.80;;
73563;SDS011;61834;50.196;6.454;2022-09-03T04:35:51;0.88;;;0.80;;
73563;SDS011;61834;50.196;6.454;2022-09-03T04:38:17;1.02;;;0.82;;
73563;SDS011;61834;50.196;6.454;2022-09-03T04:40:42;0.70;;;0.70;;
73563;SDS011;61834;50.196;6.454;2022-09-03T04:43:08;0.90;;;0.70;;
73563;SDS011;61834;50.196;6.454;2022-09-03T04:45:33;1.08;;;0.98;;
73563;SDS011;61834;50.196;6.454;2022-09-03T04:48:02;0.93;;;0.90;;
73563;SDS011;61834;50.196;6.454;2022-09-03T04:50:28;2.88;;;1.20;;
73563;SDS011;61834;50.196;6.454;2022-09-03T04:52:59;1.00;;;0.90;;
73563;SDS011;61834;50.196;6.454;2022-09-03T04:55:27;0.80;;;0.80;;
73563;SDS011;61834;50.196;6.454;2022-09-03T04:57:52;1.73;;;1.00;;
73563;SDS011;61834;50.196;6.454;2022-09-03T05:00:18;1.52;;;1.00;;
73563;SDS011;61834;50.196;6.454;2022-09-03T05:02:44;0.75;;;0.70;;
73563;SDS011;61834;50.196;6.454;2022-09-03T05:05:11;0.95;;;0.80;;
73563;SDS011;61834;50.196;6.454;2022-09-03T05:07:37;1.08;;;0.90;;
73563;SDS011;61834;50.196;6.454;2022-09-03T05:10:06;1.63;;;0.88;;
73563;SDS011;61834;50.196;6.454;2022-09-03T05:12:33;1.27;;;1.00;;
73563;SDS011;61834;50.196;6.454;2022-09-03T05:14:59;1.05;;;0.90;;
73563;SDS011;61834;50.196;6.454;2022-09-03T05:17:25;1.75;;;1.25;;
73563;SDS011;61834;50.196;6.454;2022-09-03T05:19:51;1.17;;;0.90;;
73563;SDS011;61834;50.196;6.454;2022-09-03T05:22:16;1.13;;;0.93;;
73563;SDS011;61834;50.196;6.454;2022-09-03T05:24:48;0.80;;;0.80;;
73563;SDS011;61834;50.196;6.454;2022-09-03T05:27:14;1.25;;;1.15;;
73563;SDS011;61834;50.196;6.454;2022-09-03T05:29:43;0.88;;;0.85;;
73563;SDS011;61834;50.196;6.454;2022-09-03T05:32:09;0.88;;;0.80;;
73563;SDS011;61834;50.196;6.454;2022-09-03T05:34:36;1.50;;;1.08;;
73563;SDS011;61834;50.196;6.454;2022-09-03T05:37:02;1.08;;;0.98;;
73563;SDS011;61834;50.196;6.454;2022-09-03T05:39:28;0.80;;;0.73;;
73563;SDS011;61834;50.196;6.454;2022-09-03T05:41:53;0.88;;;0.88;;
73563;SDS011;61834;50.196;6.454;2022-09-03T05:44:18;1.48;;;0.90;;
73563;SDS011;61834;50.196;6.454;2022-09-03T05:46:47;1.45;;;0.80;;
73563;SDS011;61834;50.196;6.454;2022-09-03T05:49:13;2.55;;;0.90;;
73563;SDS011;61834;50.196;6.454;2022-09-03T05:51:39;1.45;;;1.00;;
73563;SDS011;61834;50.196;6.454;2022-09-03T05:54:05;1.38;;;0.82;;
73563;SDS011;61834;50.196;6.454;2022-09-03T05:56:32;1.63;;;1.27;;
73563;SDS011;61834;50.196;6.454;2022-09-03T05:59:00;0.90;;;0.80;;
73563;SDS011;61834;50.196;6.454;2022-09-03T06:01:33;1.23;;;0.82;;
73563;SDS011;61834;50.196;6.454;2022-09-03T06:03:59;3.75;;;0.90;;
73563;SDS011;61834;50.196;6.454;2022-09-03T06:06:27;1.15;;;0.90;;
73563;SDS011;61834;50.196;6.454;2022-09-03T06:08:54;1.10;;;1.00;;
73563;SDS011;61834;50.196;6.454;2022-09-03T06:11:22;1.17;;;0.90;;
73563;SDS011;61834;50.196;6.454;2022-09-03T06:13:55;1.10;;;1.00;;
73563;SDS011;61834;50.196;6.454;2022-09-03T06:16:21;1.00;;;0.70;;
73563;SDS011;61834;50.196;6.454;2022-09-03T06:18:47;0.90;;;0.82;;
73563;SDS011;61834;50.196;6.454;2022-09-03T06:21:13;1.05;;;0.90;;
73563;SDS011;61834;50.196;6.454;2022-09-03T06:23:39;1.20;;;1.08;;
73563;SDS011;61834;50.196;6.454;2022-09-03T06:26:07;1.70;;;1.00;;
73563;SDS011;61834;50.196;6.454;2022-09-03T06:28:38;1.80;;;1.00;;
73563;SDS011;61834;50.196;6.454;2022-09-03T06:31:06;2.85;;;1.10;;
73563;SDS011;61834;50.196;6.454;2022-09-03T06:33:34;1.70;;;0.90;;
73563;SDS011;61834;50.196;6.454;2022-09-03T06:36:02;1.02;;;0.93;;
73563;SDS011;61834;50.196;6.454;2022-09-03T06:38:30;1.67;;;1.10;;
73563;SDS011;61834;50.196;6.454;2022-09-03T06:40:57;1.15;;;0.90;;
73563;SDS011;61834;50.196;6.454;2022-09-03T06:43:29;0.75;;;0.75;;
73563;SDS011;61834;50.196;6.454;2022-09-03T06:46:00;0.95;;;0.90;;
73563;SDS011;61834;50.196;6.454;2022-09-03T06:48:29;1.08;;;0.80;;
73563;SDS011;61834;50.196;6.454;2022-09-03T06:50:59;2.13;;;0.98;;
73563;SDS011;61834;50.196;6.454;2022-09-03T06:53:28;1.42;;;0.88;;
73563;SDS011;61834;50.196;6.454;2022-09-03T06:55:56;0.90;;;0.90;;
73563;SDS011;61834;50.196;6.454;2022-09-03T06:58:24;1.20;;;1.00;;
73563;SDS011;61834;50.196;6.454;2022-09-03T07:00:59;1.10;;;1.00;;
73563;SDS011;61834;50.196;6.454;2022-09-03T07:03:26;1.85;;;1.02;;
73563;SDS011;61834;50.196;6.454;2022-09-03T07:05:52;0.70;;;0.70;;
73563;SDS011;61834;50.196;6.454;2022-09-03T07:08:17;1.23;;;0.95;;
73563;SDS011;61834;50.196;6.454;2022-09-03T07:10:44;1.90;;;1.02;;
73563;SDS011;61834;50.196;6.454;2022-09-03T07:13:11;0.85;;;0.82;;
73563;SDS011;61834;50.196;6.454;2022-09-03T07:15:37;0.90;;;0.75;;
73563;SDS011;61834;50.196;6.454;2022-09-03T07:18:05;2.78;;;0.90;;
73563;SDS011;61834;50.196;6.454;2022-09-03T07:20:30;1.20;;;1.02;;
73563;SDS011;61834;50.196;6.454;2022-09-03T07:22:56;1.35;;;1.10;;
73563;SDS011;61834;50.196;6.454;2022-09-03T07:25:22;1.27;;;0.93;;
73563;SDS011;61834;50.196;6.454;2022-09-03T07:27:48;1.05;;;0.90;;
73563;SDS011;61834;50.196;6.454;2022-09-03T07:30:15;1.48;;;0.90;;
73563;SDS011;61834;50.196;6.454;2022-09-03T07:32:41;1.70;;;1.10;;
73563;SDS011;61834;50.196;6.454;2022-09-03T07:35:07;1.17;;;1.00;;
73563;SDS011;61834;50.196;6.454;2022-09-03T07:37:32;1.48;;;1.17;;
73563;SDS011;61834;50.196;6.454;2022-09-03T07:39:59;1.02;;;0.93;;
73563;SDS011;61834;50.196;6.454;2022-09-03T07:42:24;1.52;;;0.98;;
73563;SDS011;61834;50.196;6.454;2022-09-03T07:44:53;1.40;;;1.00;;
73563;SDS011;61834;50.196;6.454;2022-09-03T07:47:18;1.15;;;0.88;;
73563;SDS011;61834;50.196;6.454;2022-09-03T07:49:44;1.30;;;1.00;;
73563;SDS011;61834;50.196;6.454;2022-09-03T07:52:11;1.13;;;0.95;;
73563;SDS011;61834;50.196;6.454;2022-09-03T07:54:36;1.85;;;0.88;;
73563;SDS011;61834;50.196;6.454;2022-09-03T07:57:01;1.65;;;1.02;;
73563;SDS011;61834;50.196;6.454;2022-09-03T07:59:27;0.80;;;0.80;;
73563;SDS011;61834;50.196;6.454;2022-09-03T08:01:52;1.63;;;1.00;;
73563;SDS011;61834;50.196;6.454;2022-09-03T08:04:18;1.73;;;1.10;;
73563;SDS011;61834;50.196;6.454;2022-09-03T08:06:46;1.70;;;0.93;;
73563;SDS011;61834;50.196;6.454;2022-09-03T08:09:12;1.05;;;0.95;;
73563;SDS011;61834;50.196;6.454;2022-09-03T08:11:38;1.73;;;1.15;;
73563;SDS011;61834;50.196;6.454;2022-09-03T08:14:06;2.15;;;1.27;;
73563;SDS011;61834;50.196;6.454;2022-09-03T08:16:34;1.17;;;1.00;;
73563;SDS011;61834;50.196;6.454;2022-09-03T08:19:07;1.17;;;1.08;;
73563;SDS011;61834;50.196;6.454;2022-09-03T08:21:34;4.25;;;1.38;;
73563;SDS011;61834;50.196;6.454;2022-09-03T08:24:00;1.25;;;1.08;;
73563;SDS011;61834;50.196;6.454;2022-09-03T08:26:32;1.85;;;1.15;;
73563;SDS011;61834;50.196;6.454;2022-09-03T08:28:59;1.55;;;1.08;;
73563;SDS011;61834;50.196;6.454;2022-09-03T08:31:25;1.38;;;1.20;;
73563;SDS011;61834;50.196;6.454;2022-09-03T08:33:52;1.67;;;1.13;;
73563;SDS011;61834;50.196;6.454;2022-09-03T08:36:21;3.92;;;1.13;;
73563;SDS011;61834;50.196;6.454;2022-09-03T08:38:51;1.58;;;1.15;;
73563;SDS011;61834;50.196;6.454;2022-09-03T08:49:44;2.05;;;1.10;;
73563;SDS011;61834;50.196;6.454;2022-09-03T08:52:44;1.33;;;1.13;;
73563;SDS011;61834;50.196;6.454;2022-09-03T08:55:16;1.63;;;1.13;;
73563;SDS011;61834;50.196;6.454;2022-09-03T08:57:48;3.28;;;1.27;;
73563;SDS011;61834;50.196;6.454;2022-09-03T09:00:17;1.23;;;1.10;;
73563;SDS011;61834;50.196;6.454;2022-09-03T09:05:38;1.63;;;1.10;;
73563;SDS011;61834;50.196;6.454;2022-09-03T09:08:14;1.35;;;1.13;;
73563;SDS011;61834;50.196;6.454;2022-09-03T09:10:48;1.48;;;1.30;;
73563;SDS011;61834;50.196;6.454;2022-09-03T09:13:28;2.55;;;1.20;;
73563;SDS011;61834;50.196;6.454;2022-09-03T09:21:41;1.45;;;1.30;;
73563;SDS011;61834;50.196;6.454;2022-09-03T09:24:18;2.10;;;1.30;;
73563;SDS011;61834;50.196;6.454;2022-09-03T14:51:30;2.88;;;1.65;;
73563;SDS011;61834;50.196;6.454;2022-09-03T15:06:00;3.40;;;1.80;;
73563;SDS011;61834;50.196;6.454;2022-09-03T15:08:35;2.47;;;1.33;;
73563;SDS011;61834;50.196;6.454;2022-09-03T15:11:19;3.28;;;1.70;;
73563;SDS011;61834;50.196;6.454;2022-09-03T15:13:59;7.03;;;1.90;;
73563;SDS011;61834;50.196;6.454;2022-09-03T15:30:19;3.67;;;2.00;;
73563;SDS011;61834;50.196;6.454;2022-09-03T15:32:56;2.05;;;1.30;;
73563;SDS011;61834;50.196;6.454;2022-09-03T15:40:55;1.80;;;1.70;;
73563;SDS011;61834;50.196;6.454;2022-09-03T15:43:28;2.25;;;1.60;;
73563;SDS011;61834;50.196;6.454;2022-09-03T15:45:58;3.33;;;1.80;;
73563;SDS011;61834;50.196;6.454;2022-09-03T15:48:33;3.08;;;1.70;;
73563;SDS011;61834;50.196;6.454;2022-09-03T15:51:57;1.67;;;1.43;;
73563;SDS011;61834;50.196;6.454;2022-09-03T15:54:03;1.60;;;1.50;;
73563;SDS011;61834;50.196;6.454;2022-09-03T15:56:40;1.40;;;1.30;;
73563;SDS011;61834;50.196;6.454;2022-09-03T16:02:11;2.58;;;1.52;;
73563;SDS011;61834;50.196;6.454;2022-09-03T16:04:51;1.52;;;1.40;;
73563;SDS011;61834;50.196;6.454;2022-09-03T16:15:32;1.55;;;1.45;;
73563;SDS011;61834;50.196;6.454;2022-09-03T16:21:42;2.13;;;1.55;;
73563;SDS011;61834;50.196;6.454;2022-09-03T16:24:01;1.92;;;1.60;;
73563;SDS011;61834;50.196;6.454;2022-09-03T16:26:39;1.75;;;1.50;;
73563;SDS011;61834;50.196;6.454;2022-09-03T16:29:13;1.90;;;1.40;;
73563;SDS011;61834;50.196;6.454;2022-09-03T16:42:26;2.17;;;1.58;;
73563;SDS011;61834;50.196;6.454;2022-09-03T16:50:23;2.67;;;1.40;;
73563;SDS011;61834;50.196;6.454;2022-09-03T16:53:08;1.70;;;1.48;;
73563;SDS011;61834;50.196;6.454;2022-09-03T16:55:52;2.20;;;1.63;;
73563;SDS011;61834;50.196;6.454;2022-09-03T17:01:25;1.63;;;1.40;;
73563;SDS011;61834;50.196;6.454;2022-09-03T17:04:16;1.38;;;1.27;;
73563;SDS011;61834;50.196;6.454;2022-09-03T17:06:50;2.58;;;1.60;;
73563;SDS011;61834;50.196;6.454;2022-09-03T17:12:06;2.05;;;1.75;;
73563;SDS011;61834;50.196;6.454;2022-09-03T17:17:22;1.90;;;1.70;;
73563;SDS011;61834;50.196;6.454;2022-09-03T17:22:36;1.80;;;1.48;;
73563;SDS011;61834;50.196;6.454;2022-09-03T17:25:17;1.50;;;1.40;;
73563;SDS011;61834;50.196;6.454;2022-09-03T17:27:49;3.28;;;1.70;;
73563;SDS011;61834;50.196;6.454;2022-09-03T17:41:52;2.30;;;1.58;;
73563;SDS011;61834;50.196;6.454;2022-09-03T17:49:53;1.75;;;1.30;;
73563;SDS011;61834;50.196;6.454;2022-09-03T17:52:36;1.63;;;1.50;;
73563;SDS011;61834;50.196;6.454;2022-09-03T17:55:12;2.08;;;1.40;;
73563;SDS011;61834;50.196;6.454;2022-09-03T17:57:50;1.63;;;1.42;;
73563;SDS011;61834;50.196;6.454;2022-09-03T18:00:29;2.42;;;1.63;;
73563;SDS011;61834;50.196;6.454;2022-09-03T18:03:07;1.88;;;1.67;;
73563;SDS011;61834;50.196;6.454;2022-09-03T18:11:13;1.60;;;1.50;;
73563;SDS011;61834;50.196;6.454;2022-09-03T18:13:53;2.10;;;1.58;;
73563;SDS011;61834;50.196;6.454;2022-09-03T18:16:32;2.97;;;1.60;;
73563;SDS011;61834;50.196;6.454;2022-09-03T18:19:01;1.30;;;1.20;;
73563;SDS011;61834;50.196;6.454;2022-09-03T18:21:34;1.15;;;1.05;;
73563;SDS011;61834;50.196;6.454;2022-09-03T18:27:40;2.53;;;1.42;;
73563;SDS011;61834;50.196;6.454;2022-09-03T18:30:29;1.95;;;1.48;;
73563;SDS011;61834;50.196;6.454;2022-09-03T18:33:14;1.50;;;1.40;;
73563;SDS011;61834;50.196;6.454;2022-09-03T18:36:04;1.85;;;1.42;;
73563;SDS011;61834;50.196;6.454;2022-09-03T18:38:48;1.58;;;1.30;;
73563;SDS011;61834;50.196;6.454;2022-09-03T18:50:33;1.50;;;1.40;;
73563;SDS011;61834;50.196;6.454;2022-09-03T18:53:27;1.58;;;1.48;;
73563;SDS011;61834;50.196;6.454;2022-09-03T19:08:52;2.03;;;1.48;;
73563;SDS011;61834;50.196;6.454;2022-09-03T19:14:44;2.33;;;1.25;;
73563;SDS011;61834;50.196;6.454;2022-09-03T19:20:54;1.58;;;1.30;;
73563;SDS011;61834;50.196;6.454;2022-09-03T19:23:46;1.40;;;1.30;;
73563;SDS011;61834;50.196;6.454;2022-09-03T19:32:24;2.10;;;1.40;;
73563;SDS011;61834;50.196;6.454;2022-09-03T19:35:22;2.53;;;1.50;;
73563;SDS011;61834;50.196;6.454;2022-09-03T19:41:22;5.30;;;1.60;;
73563;SDS011;61834;50.196;6.454;2022-09-03T19:44:37;1.80;;;1.38;;
73563;SDS011;61834;50.196;6.454;2022-09-03T19:50:44;1.60;;;1.40;;
73563;SDS011;61834;50.196;6.454;2022-09-03T19:53:38;4.70;;;1.55;;
73563;SDS011;61834;50.196;6.454;2022-09-03T19:56:26;1.58;;;1.20;;
73563;SDS011;61834;50.196;6.454;2022-09-03T19:59:12;3.20;;;1.30;;
73563;SDS011;61834;50.196;6.454;2022-09-03T20:02:03;2.05;;;1.52;;
73563;SDS011;61834;50.196;6.454;2022-09-03T20:04:50;3.20;;;1.42;;
73563;SDS011;61834;50.196;6.454;2022-09-03T20:07:40;1.77;;;1.23;;
73563;SDS011;61834;50.196;6.454;2022-09-03T20:10:24;1.67;;;1.30;;
73563;SDS011;61834;50.196;6.454;2022-09-03T20:13:02;1.38;;;1.13;;
73563;SDS011;61834;50.196;6.454;2022-09-03T20:20:43;1.55;;;1.40;;
73563;SDS011;61834;50.196;6.454;2022-09-03T20:23:18;2.13;;;1.40;;
73563;SDS011;61834;50.196;6.454;2022-09-03T20:35:02;1.50;;;1.20;;
73563;SDS011;61834;50.196;6.454;2022-09-03T20:45:25;1.38;;;1.27;;
73563;SDS011;61834;50.196;6.454;2022-09-03T20:56:11;1.45;;;1.35;;
73563;SDS011;61834;50.196;6.454;2022-09-03T20:58:48;1.33;;;1.23;;
73563;SDS011;61834;50.196;6.454;2022-09-03T21:01:33;1.17;;;1.08;;
73563;SDS011;61834;50.196;6.454;2022-09-03T21:06:41;1.23;;;1.13;;
73563;SDS011;61834;50.196;6.454;2022-09-03T21:09:17;2.15;;;1.23;;
73563;SDS011;61834;50.196;6.454;2022-09-03T21:11:57;4.25;;;1.02;;
73563;SDS011;61834;50.196;6.454;2022-09-03T21:17:13;1.50;;;1.05;;
73563;SDS011;61834;50.196;6.454;2022-09-03T21:25:30;2.30;;;1.10;;
73563;SDS011;61834;50.196;6.454;2022-09-03T21:28:00;6.18;;;1.70;;
73563;SDS011;61834;50.196;6.454;2022-09-03T21:30:30;1.65;;;1.23;;
73563;SDS011;61834;50.196;6.454;2022-09-03T21:33:04;3.92;;;1.33;;
73563;SDS011;61834;50.196;6.454;2022-09-03T21:35:41;2.50;;;1.10;;
73563;SDS011;61834;50.196;6.454;2022-09-03T21:38:21;11.68;;;1.35;;
73563;SDS011;61834;50.196;6.454;2022-09-03T21:40:53;4.85;;;1.45;;
73563;SDS011;61834;50.196;6.454;2022-09-03T21:43:28;6.78;;;1.20;;
73563;SDS011;61834;50.196;6.454;2022-09-03T21:45:58;2.22;;;1.35;;
73563;SDS011;61834;50.196;6.454;2022-09-03T21:51:14;2.97;;;1.25;;
73563;SDS011;61834;50.196;6.454;2022-09-03T21:59:02;3.30;;;1.15;;
73563;SDS011;61834;50.196;6.454;2022-09-03T22:01:56;3.20;;;1.10;;
73563;SDS011;61834;50.196;6.454;2022-09-03T22:04:41;1.42;;;1.08;;
73563;SDS011;61834;50.196;6.454;2022-09-03T22:12:42;1.73;;;1.15;;
73563;SDS011;61834;50.196;6.454;2022-09-03T22:15:12;1.65;;;1.02;;
73563;SDS011;61834;50.196;6.454;2022-09-03T22:17:43;1.70;;;1.10;;
73563;SDS011;61834;50.196;6.454;2022-09-03T22:20:10;2.03;;;1.10;;
73563;SDS011;61834;50.196;6.454;2022-09-03T22:25:16;5.10;;;1.10;;
73563;SDS011;61834;50.196;6.454;2022-09-03T22:30:24;2.10;;;0.93;;
73563;SDS011;61834;50.196;6.454;2022-09-03T22:33:16;1.52;;;0.85;;
73563;SDS011;61834;50.196;6.454;2022-09-03T22:56:03;1.65;;;0.88;;
73563;SDS011;61834;50.196;6.454;2022-09-03T22:59:06;0.90;;;0.80;;
73563;SDS011;61834;50.196;6.454;2022-09-03T23:04:06;2.92;;;0.95;;
73563;SDS011;61834;50.196;6.454;2022-09-03T23:06:38;1.10;;;0.80;;
73563;SDS011;61834;50.196;6.454;2022-09-03T23:09:13;3.72;;;1.17;;
73563;SDS011;61834;50.196;6.454;2022-09-03T23:11:43;3.35;;;1.17;;
73563;SDS011;61834;50.196;6.454;2022-09-03T23:14:17;2.20;;;0.98;;
73563;SDS011;61834;50.196;6.454;2022-09-03T23:22:15;1.40;;;0.85;;
73563;SDS011;61834;50.196;6.454;2022-09-03T23:24:54;1.02;;;0.90;;
73563;SDS011;61834;50.196;6.454;2022-09-03T23:27:30;1.23;;;0.90;;
